Time;durP1;ratioP1;P1;durP2;ratioP2;P2;SDS_P1;SDS_P2;PMS_P1;PMS_P2;Temp;Humidity;BMP_temperature;BMP_pressure;BME280_temperature;BME280_humidity;BME280_pressure;Samples;Min_cycle;Max_cycle;Signal;HPM_P1;HPM_P2
2021/03/08 00:00:23;;;;;;;15.30;10.50;;;5.30;99.90;;;;;;5073819;28;20192;-84
2021/03/08 00:02:50;;;;;;;15.90;11.43;;;5.30;99.90;;;;;;5074216;28;20164;-83
2021/03/08 00:05:16;;;;;;;14.67;10.60;;;5.30;1.00;;;;;;5074206;28;20210;-79
2021/03/08 00:07:45;;;;;;;14.20;11.23;;;5.20;1.00;;;;;;5055933;28;20227;-79
2021/03/08 00:10:11;;;;;;;15.00;11.37;;;5.20;95.10;;;;;;5073992;28;20243;-80
2021/03/08 00:12:37;;;;;;;16.23;12.33;;;5.20;1.00;;;;;;5073865;28;20584;-83
2021/03/08 00:15:04;;;;;;;16.97;12.90;;;5.20;99.90;;;;;;5055910;28;20199;-84
2021/03/08 00:17:29;;;;;;;15.87;12.20;;;5.20;1.00;;;;;;5072956;28;20230;-83
2021/03/08 00:19:55;;;;;;;16.37;11.60;;;5.20;1.00;;;;;;5074326;28;20172;-84
2021/03/08 00:22:21;;;;;;;17.67;12.20;;;5.20;1.00;;;;;;5073985;28;20173;-84
2021/03/08 00:24:46;;;;;;;16.60;11.87;;;5.30;1.00;;;;;;5073535;28;20203;-84
2021/03/08 00:27:12;;;;;;;16.70;12.33;;;5.40;1.00;;;;;;5072900;28;20544;-84
2021/03/08 00:29:38;;;;;;;17.97;11.13;;;5.40;1.00;;;;;;5073118;28;20188;-84
2021/03/08 00:32:06;;;;;;;17.60;11.73;;;5.40;1.00;;;;;;5073740;28;20222;-84
2021/03/08 00:34:32;;;;;;;17.23;12.43;;;5.40;1.00;;;;;;5055693;28;20182;-78
2021/03/08 00:36:58;;;;;;;16.53;11.43;;;5.40;1.00;;;;;;5073743;28;20180;-77
2021/03/08 00:39:23;;;;;;;14.97;11.93;;;5.40;1.00;;;;;;5073287;28;20176;-85
2021/03/08 00:41:49;;;;;;;16.03;11.27;;;5.30;1.00;;;;;;5073228;28;20179;-81
2021/03/08 00:44:14;;;;;;;13.80;11.13;;;5.30;1.00;;;;;;5073240;28;20175;-82
2021/03/08 00:46:40;;;;;;;16.40;11.70;;;5.30;1.00;;;;;;5073515;28;20313;-81
2021/03/08 00:49:06;;;;;;;15.47;11.60;;;5.30;1.00;;;;;;5055366;28;20215;-81
2021/03/08 00:51:31;;;;;;;17.17;12.03;;;5.40;55.10;;;;;;5073203;28;20700;-81
2021/03/08 00:53:57;;;;;;;17.53;11.67;;;5.40;99.90;;;;;;5073324;28;20176;-82
2021/03/08 00:56:23;;;;;;;15.70;12.00;;;5.30;24.30;;;;;;5073328;28;20168;-80
2021/03/08 00:58:48;;;;;;;16.53;12.73;;;5.30;1.00;;;;;;5073025;28;20172;-83
2021/03/08 01:01:14;;;;;;;17.83;12.17;;;5.20;10.60;;;;;;5073113;28;20216;-81
2021/03/08 01:03:40;;;;;;;15.63;11.60;;;5.30;1.00;;;;;;5073179;28;20176;-84
2021/03/08 01:06:05;;;;;;;17.53;12.50;;;5.20;1.00;;;;;;5072831;28;20213;-78
2021/03/08 01:08:31;;;;;;;17.00;12.40;;;5.20;1.00;;;;;;5073186;28;20196;-84
2021/03/08 01:10:57;;;;;;;17.73;12.70;;;5.20;1.00;;;;;;5055137;28;20165;-81
2021/03/08 01:13:23;;;;;;;16.40;10.87;;;5.30;1.00;;;;;;5072957;28;20172;-83
2021/03/08 01:15:51;;;;;;;18.00;12.90;;;5.40;1.00;;;;;;5073373;28;20168;-83
2021/03/08 01:18:17;;;;;;;18.53;12.50;;;5.50;1.00;;;;;;5073146;28;20160;-83
2021/03/08 01:20:44;;;;;;;17.50;12.70;;;5.40;1.00;;;;;;5073926;28;20179;-84
2021/03/08 01:23:10;;;;;;;16.70;12.40;;;5.50;1.00;;;;;;5073108;28;20537;-85
2021/03/08 01:25:37;;;;;;;16.60;11.63;;;5.40;1.00;;;;;;5055176;28;20172;-84
2021/03/08 01:28:03;;;;;;;15.73;11.73;;;5.30;1.00;;;;;;5073886;28;20274;-79
2021/03/08 01:30:36;;;;;;;19.40;12.23;;;5.30;99.90;;;;;;5058577;28;20263;-78
2021/03/08 01:33:02;;;;;;;16.30;12.50;;;5.20;30.30;;;;;;5076980;28;20160;-85
2021/03/08 01:35:28;;;;;;;18.83;13.37;;;5.20;41.80;;;;;;5076868;28;20268;-85
2021/03/08 01:37:54;;;;;;;19.00;12.83;;;5.10;99.90;;;;;;5077103;28;20707;-78
2021/03/08 01:40:23;;;;;;;18.20;13.10;;;5.10;99.90;;;;;;5076848;28;20168;-82
2021/03/08 01:42:49;;;;;;;19.80;13.30;;;5.10;99.90;;;;;;5076553;28;20160;-81
2021/03/08 01:45:16;;;;;;;19.53;13.43;;;5.10;99.90;;;;;;5076680;28;20279;-81
2021/03/08 01:47:44;;;;;;;18.70;14.50;;;5.10;99.90;;;;;;5058658;28;20581;-82
2021/03/08 01:50:25;;;;;;;18.97;13.40;;;5.00;99.90;;;;;;5076337;28;20287;-79
2021/03/08 01:52:51;;;;;;;18.83;14.10;;;5.00;99.90;;;;;;5076512;28;20169;-80
2021/03/08 01:55:18;;;;;;;20.73;13.80;;;4.90;99.90;;;;;;5058205;28;20575;-83
2021/03/08 01:57:44;;;;;;;18.90;13.83;;;4.90;99.90;;;;;;5076267;28;20257;-80
2021/03/08 02:00:11;;;;;;;18.70;13.27;;;4.90;1.00;;;;;;5076579;28;20192;-80
2021/03/08 02:02:36;;;;;;;17.57;12.90;;;4.90;1.00;;;;;;5058361;28;20230;-79
2021/03/08 02:05:06;;;;;;;18.90;13.70;;;4.80;1.00;;;;;;5076245;28;20206;-80
2021/03/08 02:07:31;;;;;;;19.70;14.33;;;4.80;1.00;;;;;;5058540;28;20208;-84
2021/03/08 02:09:57;;;;;;;23.00;13.53;;;4.80;1.00;;;;;;5058387;28;20195;-81
2021/03/08 02:12:46;;;;;;;20.63;14.80;;;4.70;1.00;;;;;;5076247;28;20168;-82
2021/03/08 02:15:25;;;;;;;19.53;13.40;;;4.70;1.00;;;;;;5075944;28;20176;-82
2021/03/08 02:18:00;;;;;;;20.83;14.87;;;4.70;1.00;;;;;;5058057;28;20542;-80
2021/03/08 02:20:45;;;;;;;21.50;14.50;;;4.70;1.00;;;;;;5058004;28;20192;-79
2021/03/08 02:23:32;;;;;;;19.57;13.73;;;4.70;1.00;;;;;;5076054;28;20183;-83
2021/03/08 02:26:21;;;;;;;21.50;14.60;;;4.60;1.00;;;;;;5075794;28;20172;-81
2021/03/08 02:29:02;;;;;;;20.33;14.00;;;4.60;1.00;;;;;;5075766;28;20296;-80
2021/03/08 02:31:31;;;;;;;21.40;14.23;;;4.60;1.00;;;;;;5075693;28;20196;-80
2021/03/08 02:34:02;;;;;;;20.23;13.87;;;4.60;1.00;;;;;;5075617;28;20215;-84
2021/03/08 02:36:33;;;;;;;19.23;14.47;;;4.60;1.00;;;;;;5075281;28;20222;-83
2021/03/08 02:39:07;;;;;;;24.67;15.27;;;4.60;1.00;;;;;;5075100;28;20172;-81
2021/03/08 02:41:34;;;;;;;21.50;15.57;;;4.50;1.00;;;;;;5074743;28;20199;-79
2021/03/08 02:44:07;;;;;;;20.97;15.20;;;4.50;1.00;;;;;;5075648;28;20165;-79
2021/03/08 02:46:36;;;;;;;21.03;14.93;;;4.50;1.00;;;;;;5075485;28;20180;-81
2021/03/08 02:49:10;;;;;;;21.43;15.13;;;4.50;1.00;;;;;;5075510;28;20204;-82
2021/03/08 02:51:42;;;;;;;20.03;14.60;;;4.50;1.00;;;;;;5075274;28;20191;-77
2021/03/08 02:54:09;;;;;;;21.80;14.97;;;4.50;1.00;;;;;;5057290;28;20171;-81
2021/03/08 02:56:36;;;;;;;23.50;15.57;;;4.50;1.00;;;;;;5057604;28;20169;-81
2021/03/08 02:59:05;;;;;;;21.43;15.83;;;4.50;1.00;;;;;;5076107;28;20604;-80
2021/03/08 03:01:34;;;;;;;22.53;15.37;;;4.60;1.00;;;;;;5075217;28;20164;-78
2021/03/08 03:04:01;;;;;;;21.17;15.80;;;4.60;1.00;;;;;;5075479;28;20165;-78
2021/03/08 03:06:31;;;;;;;22.20;15.97;;;4.60;1.00;;;;;;5075334;28;20196;-82
2021/03/08 03:08:57;;;;;;;21.37;15.50;;;4.60;1.00;;;;;;5074823;28;20235;-79
2021/03/08 03:11:26;;;;;;;22.57;15.70;;;4.50;1.00;;;;;;5075123;28;20264;-81
2021/03/08 03:13:53;;;;;;;22.17;15.40;;;4.50;1.00;;;;;;5057519;28;20247;-82
2021/03/08 03:16:20;;;;;;;22.80;14.80;;;4.40;1.00;;;;;;5057308;28;20168;-84
2021/03/08 03:18:49;;;;;;;21.23;16.30;;;4.20;1.00;;;;;;5075346;28;20171;-84
2021/03/08 03:21:17;;;;;;;22.43;14.67;;;4.20;1.00;;;;;;5075079;28;20620;-80
2021/03/08 03:23:43;;;;;;;21.50;16.10;;;4.10;1.00;;;;;;5074980;28;20219;-83
2021/03/08 03:26:09;;;;;;;23.20;16.17;;;4.10;1.00;;;;;;5075075;28;20850;-82
2021/03/08 03:28:35;;;;;;;24.33;15.27;;;4.10;1.00;;;;;;5075104;28;20229;-83
2021/03/08 03:31:03;;;;;;;23.90;16.47;;;4.10;1.00;;;;;;5075008;28;20175;-81
2021/03/08 03:33:29;;;;;;;25.23;16.60;;;4.10;1.00;;;;;;5074878;28;20168;-81
2021/03/08 03:35:55;;;;;;;24.37;16.50;;;4.40;1.00;;;;;;5074654;28;20585;-85
2021/03/08 03:38:22;;;;;;;23.57;16.27;;;4.40;1.00;;;;;;5074527;28;20264;-80
2021/03/08 03:40:49;;;;;;;23.50;16.37;;;4.50;1.00;;;;;;5056869;28;20220;-83
2021/03/08 03:43:15;;;;;;;23.77;15.90;;;4.40;1.00;;;;;;5074425;28;20176;-78
2021/03/08 03:45:41;;;;;;;25.90;16.90;;;4.50;1.00;;;;;;5056846;28;20225;-81
2021/03/08 03:48:07;;;;;;;27.03;16.53;;;4.70;1.00;;;;;;5074142;28;20200;-80
2021/03/08 03:50:33;;;;;;;23.40;16.00;;;4.80;1.00;;;;;;5074094;28;20218;-80
2021/03/08 03:52:58;;;;;;;22.93;16.83;;;4.60;1.00;;;;;;5073532;28;20259;-79
2021/03/08 03:55:25;;;;;;;22.60;17.10;;;4.60;1.00;;;;;;5074630;28;20211;-82
2021/03/08 03:58:08;;;;;;;24.73;16.57;;;4.50;1.00;;;;;;5074699;28;20160;-83
2021/03/08 04:00:57;;;;;;;27.47;17.03;;;4.40;1.00;;;;;;5074802;28;20251;-78
2021/03/08 04:04:00;;;;;;;26.67;17.40;;;4.50;1.00;;;;;;5056425;28;20176;-81
2021/03/08 04:06:32;;;;;;;22.37;16.07;;;4.60;1.00;;;;;;5042811;28;20216;-80
2021/03/08 04:08:59;;;;;;;24.03;16.53;;;4.50;1.00;;;;;;5056199;28;20310;-81
2021/03/08 04:11:31;;;;;;;25.73;17.30;;;4.40;1.00;;;;;;5074352;28;20156;-78
2021/03/08 04:13:58;;;;;;;24.53;17.47;;;4.40;1.00;;;;;;5074044;28;20741;-84
2021/03/08 04:16:25;;;;;;;23.27;17.37;;;4.40;1.00;;;;;;5075529;28;20188;-79
2021/03/08 04:18:52;;;;;;;26.73;18.13;;;4.30;1.00;;;;;;5075030;28;20271;-82
2021/03/08 04:21:19;;;;;;;25.90;18.23;;;4.10;1.00;;;;;;5073741;28;20169;-79
2021/03/08 04:23:46;;;;;;;27.77;19.20;;;4.10;1.00;;;;;;5056012;28;20263;-83
2021/03/08 04:26:12;;;;;;;27.43;18.90;;;4.10;1.00;;;;;;5074152;28;20247;-84
2021/03/08 04:28:40;;;;;;;27.97;18.77;;;4.00;1.00;;;;;;5074142;28;20663;-78
2021/03/08 04:31:06;;;;;;;29.03;19.40;;;4.00;1.00;;;;;;5074142;28;20173;-78
2021/03/08 04:33:33;;;;;;;30.77;20.80;;;4.00;1.00;;;;;;5056395;28;20177;-82
2021/03/08 04:36:00;;;;;;;28.87;20.40;;;4.00;1.00;;;;;;5073839;28;20203;-81
2021/03/08 04:38:28;;;;;;;29.03;19.83;;;4.10;1.00;;;;;;5056196;28;20169;-84
2021/03/08 04:40:55;;;;;;;32.87;21.77;;;4.00;1.00;;;;;;5073867;28;20241;-79
2021/03/08 04:43:23;;;;;;;32.23;21.93;;;4.00;1.00;;;;;;5074042;28;20179;-82
2021/03/08 04:45:52;;;;;;;29.67;20.80;;;4.10;1.00;;;;;;5073890;28;20642;-78
2021/03/08 04:48:18;;;;;;;31.57;22.17;;;4.10;1.00;;;;;;5073976;28;20283;-82
2021/03/08 04:50:46;;;;;;;33.87;23.20;;;4.10;1.00;;;;;;5073154;28;20290;-79
2021/03/08 04:53:14;;;;;;;35.70;23.47;;;4.10;1.00;;;;;;5055818;28;20192;-81
2021/03/08 04:55:41;;;;;;;36.70;23.37;;;4.20;1.00;;;;;;5056064;28;20173;-80
2021/03/08 04:58:06;;;;;;;33.43;23.37;;;4.20;1.00;;;;;;5073625;28;20584;-84
2021/03/08 05:00:32;;;;;;;34.50;23.63;;;4.20;1.00;;;;;;5074226;28;20203;-80
2021/03/08 05:02:59;;;;;;;32.63;22.53;;;4.40;1.00;;;;;;5073448;28;20168;-80
2021/03/08 05:05:26;;;;;;;36.97;25.07;;;4.40;1.00;;;;;;5073726;28;20168;-81
2021/03/08 05:07:57;;;;;;;35.20;22.40;;;4.50;1.00;;;;;;5073499;28;20196;-80
2021/03/08 05:10:26;;;;;;;35.70;24.43;;;4.50;1.00;;;;;;5073183;28;20184;-82
2021/03/08 05:12:53;;;;;;;38.60;23.30;;;4.50;1.00;;;;;;5073670;28;20160;-80
2021/03/08 05:15:19;;;;;;;34.73;23.10;;;4.60;1.00;;;;;;5075095;28;20628;-78
2021/03/08 05:17:46;;;;;;;37.37;24.70;;;4.70;1.00;;;;;;5075892;28;20168;-80
2021/03/08 05:20:15;;;;;;;38.40;25.20;;;4.80;1.00;;;;;;5074899;28;20172;-78
2021/03/08 05:22:42;;;;;;;39.83;26.03;;;4.80;1.00;;;;;;5056884;28;20172;-82
2021/03/08 05:25:09;;;;;;;37.57;25.47;;;4.60;1.00;;;;;;5072916;28;20230;-81
2021/03/08 05:27:36;;;;;;;36.23;24.87;;;4.50;1.00;;;;;;5054802;28;20196;-79
2021/03/08 05:30:05;;;;;;;37.43;25.60;;;4.50;1.00;;;;;;5072442;28;20203;-79
2021/03/08 05:32:41;;;;;;;37.97;25.57;;;4.50;1.00;;;;;;5038474;28;20229;-80
2021/03/08 05:35:09;;;;;;;40.90;25.27;;;4.50;1.00;;;;;;5072476;28;20176;-79
2021/03/08 05:37:37;;;;;;;41.43;27.07;;;4.60;1.00;;;;;;5072767;28;20176;-84
2021/03/08 05:40:07;;;;;;;42.67;26.63;;;4.70;1.00;;;;;;5054609;28;20168;-82
2021/03/08 05:42:35;;;;;;;41.03;26.63;;;4.80;1.00;;;;;;5072713;28;20199;-79
2021/03/08 05:45:08;;;;;;;42.23;27.20;;;4.90;1.00;;;;;;5054775;28;20211;-78
2021/03/08 05:47:54;;;;;;;40.70;26.50;;;5.10;1.00;;;;;;5072482;28;20206;-79
2021/03/08 05:50:54;;;;;;;42.57;27.37;;;5.20;1.00;;;;;;5071758;28;20204;-81
2021/03/08 05:53:37;;;;;;;43.33;29.93;;;5.20;1.00;;;;;;5072742;28;20693;-77
2021/03/08 05:56:41;;;;;;;43.67;28.67;;;5.20;1.00;;;;;;5054436;28;20643;-80
2021/03/08 05:59:35;;;;;;;44.07;28.37;;;5.30;1.00;;;;;;5072824;28;20165;-80
2021/03/08 06:02:29;;;;;;;42.63;28.13;;;5.30;1.00;;;;;;5054306;28;20705;-82
2021/03/08 06:05:23;;;;;;;45.47;28.57;;;5.10;1.00;;;;;;5072179;28;20165;-80
2021/03/08 06:08:19;;;;;;;44.77;28.40;;;5.00;1.00;;;;;;5072428;28;20218;-79
2021/03/08 06:11:07;;;;;;;42.17;27.50;;;5.20;1.00;;;;;;5072129;28;20180;-79
2021/03/08 06:13:55;;;;;;;45.20;29.77;;;5.20;1.00;;;;;;5072053;28;20169;-81
2021/03/08 06:16:36;;;;;;;42.97;27.00;;;5.40;1.00;;;;;;5075438;28;20225;-78
2021/03/08 06:19:06;;;;;;;44.57;28.13;;;5.40;1.00;;;;;;5075224;28;20226;-83
2021/03/08 06:21:32;;;;;;;42.23;27.23;;;5.40;1.00;;;;;;5074990;28;20176;-84
2021/03/08 06:23:59;;;;;;;43.30;27.90;;;5.50;1.00;;;;;;5076032;28;20165;-83
2021/03/08 06:26:25;;;;;;;45.63;26.53;;;5.60;1.00;;;;;;5075851;28;20191;-79
2021/03/08 06:28:52;;;;;;;40.33;26.97;;;5.60;1.00;;;;;;5076198;28;20204;-81
2021/03/08 06:31:19;;;;;;;41.03;26.70;;;5.70;1.00;;;;;;5060885;28;20179;-84
2021/03/08 06:33:45;;;;;;;38.43;25.47;;;5.70;1.00;;;;;;5075891;28;20172;-84
2021/03/08 06:36:12;;;;;;;42.83;26.33;;;5.90;1.00;;;;;;5075771;28;20589;-82
2021/03/08 06:38:38;;;;;;;45.13;27.33;;;5.80;1.00;;;;;;5076100;28;20270;-83
2021/03/08 06:41:07;;;;;;;38.90;26.33;;;5.70;1.00;;;;;;5057637;28;20632;-84
2021/03/08 06:43:32;;;;;;;38.10;26.37;;;5.70;1.00;;;;;;5057215;28;20173;-81
2021/03/08 06:45:58;;;;;;;40.97;26.40;;;5.70;1.00;;;;;;5074935;28;20175;-81
2021/03/08 06:48:24;;;;;;;40.43;26.77;;;5.70;1.00;;;;;;5074993;28;20246;-84
2021/03/08 06:51:12;;;;;;;38.67;24.90;;;5.60;1.00;;;;;;5057011;28;20576;-83
2021/03/08 06:53:43;;;;;;;38.07;24.87;;;5.50;1.00;;;;;;5074972;28;20191;-80
2021/03/08 06:56:15;;;;;;;44.00;25.63;;;5.50;1.00;;;;;;5074476;28;20168;-84
2021/03/08 06:58:42;;;;;;;38.83;24.70;;;5.60;1.00;;;;;;5056822;28;20644;-84
2021/03/08 07:01:31;;;;;;;36.77;24.10;;;5.70;1.00;;;;;;5074594;28;20173;-80
2021/03/08 07:03:59;;;;;;;38.90;25.10;;;5.80;1.00;;;;;;5074949;28;20173;-82
2021/03/08 07:06:25;;;;;;;41.60;24.67;;;5.90;1.00;;;;;;5056840;28;20180;-85
2021/03/08 07:08:51;;;;;;;40.17;25.80;;;6.10;1.00;;;;;;5074775;28;20236;-79
2021/03/08 07:11:22;;;;;;;40.57;26.50;;;6.10;1.00;;;;;;5073908;28;20168;-77
2021/03/08 07:13:49;;;;;;;38.53;25.70;;;6.20;1.00;;;;;;5056302;28;20673;-78
2021/03/08 07:16:15;;;;;;;38.83;24.53;;;6.20;1.00;;;;;;5073508;28;20168;-79
2021/03/08 07:18:42;;;;;;;44.23;27.00;;;6.30;1.00;;;;;;5072606;28;20251;-79
2021/03/08 07:21:16;;;;;;;45.50;27.40;;;6.30;1.00;;;;;;5055051;28;20624;-80
2021/03/08 07:23:43;;;;;;;41.30;26.73;;;6.30;1.00;;;;;;5073651;28;20183;-80
2021/03/08 07:26:11;;;;;;;40.33;26.37;;;6.40;1.00;;;;;;5074495;28;20168;-79
2021/03/08 07:28:38;;;;;;;44.27;27.17;;;6.50;1.00;;;;;;5073660;28;20216;-81
2021/03/08 07:31:05;;;;;;;42.70;25.67;;;6.50;1.00;;;;;;5054027;28;20187;-80
2021/03/08 07:33:30;;;;;;;46.47;27.83;;;6.70;1.00;;;;;;5071633;28;20216;-80
2021/03/08 07:35:56;;;;;;;44.40;27.27;;;6.80;1.00;;;;;;5073962;28;20199;-89
2021/03/08 07:38:36;;;;;;;47.23;28.80;;;6.80;1.00;;;;;;5073052;28;20191;-83
2021/03/08 07:41:12;;;;;;;43.60;28.23;;;6.90;1.00;;;;;;5073868;28;20643;-82
2021/03/08 07:43:39;;;;;;;48.00;28.40;;;7.00;1.00;;;;;;5073975;28;20179;-82
2021/03/08 07:46:05;;;;;;;46.90;29.83;;;7.10;99.90;;;;;;5075703;28;20176;-79
2021/03/08 07:48:31;;;;;;;49.17;31.30;;;7.10;99.90;;;;;;5074984;28;20208;-87
2021/03/08 07:51:05;;;;;;;46.77;31.90;;;7.10;99.90;;;;;;5067271;28;20199;-78
2021/03/08 07:53:34;;;;;;;48.00;31.20;;;7.10;99.90;;;;;;5073336;28;20176;-80
2021/03/08 07:56:04;;;;;;;49.00;32.57;;;6.90;1.00;;;;;;5073981;28;20168;-83
2021/03/08 07:58:34;;;;;;;47.50;31.13;;;6.80;1.00;;;;;;5075726;28;20172;-77
2021/03/08 08:01:03;;;;;;;48.43;33.13;;;6.70;1.00;;;;;;5073222;28;20172;-83
2021/03/08 08:03:29;;;;;;;47.07;32.83;;;6.80;1.00;;;;;;5073179;28;20259;-80
2021/03/08 08:05:59;;;;;;;48.43;31.23;;;6.70;1.00;;;;;;5073352;28;20252;-80
2021/03/08 08:08:27;;;;;;;49.53;32.37;;;6.80;1.00;;;;;;5072034;28;20192;-78
2021/03/08 08:10:54;;;;;;;49.53;32.97;;;6.60;1.00;;;;;;5073900;28;20169;-89
2021/03/08 08:13:30;;;;;;;54.13;33.03;;;6.60;1.00;;;;;;5055396;28;20172;-89
2021/03/08 08:15:57;;;;;;;49.23;33.13;;;6.70;1.00;;;;;;5074190;28;20171;-79
2021/03/08 08:18:26;;;;;;;54.40;34.23;;;6.80;1.00;;;;;;5072950;28;20161;-78
2021/03/08 08:20:55;;;;;;;52.53;34.10;;;6.60;1.00;;;;;;5073091;28;20535;-78
2021/03/08 08:23:27;;;;;;;52.63;34.17;;;6.60;1.00;;;;;;5072311;28;20222;-78
2021/03/08 08:25:53;;;;;;;51.57;33.90;;;6.40;1.00;;;;;;5070060;28;20169;-78
2021/03/08 08:28:19;;;;;;;52.50;34.30;;;6.30;1.00;;;;;;5072511;28;20207;-77
2021/03/08 08:30:58;;;;;;;54.23;33.80;;;6.30;1.00;;;;;;5072517;28;20240;-83
2021/03/08 08:33:32;;;;;;;55.90;34.70;;;6.30;1.00;;;;;;5071409;28;20314;-81
2021/03/08 08:36:08;;;;;;;56.80;35.40;;;6.40;1.00;;;;;;5070446;28;20207;-79
2021/03/08 08:38:35;;;;;;;53.30;32.33;;;6.40;1.00;;;;;;5054065;28;20176;-85
2021/03/08 08:41:19;;;;;;;51.53;32.73;;;6.30;1.00;;;;;;5072488;28;20168;-79
2021/03/08 08:43:46;;;;;;;47.40;31.43;;;6.40;1.00;;;;;;5072196;28;20176;-80
2021/03/08 08:46:23;;;;;;;49.77;33.67;;;6.30;1.00;;;;;;5072333;28;20160;-78
2021/03/08 08:49:04;;;;;;;45.33;31.73;;;6.20;1.00;;;;;;5071807;28;20214;-81
2021/03/08 08:51:48;;;;;;;57.57;33.10;;;6.20;1.00;;;;;;5072239;28;20222;-78
2021/03/08 08:54:32;;;;;;;46.97;30.67;;;6.20;1.00;;;;;;5072311;28;20225;-80
2021/03/08 08:57:08;;;;;;;55.27;34.57;;;6.20;1.00;;;;;;5072590;28;20192;-83
2021/03/08 08:59:35;;;;;;;55.70;31.87;;;6.20;1.00;;;;;;5072128;28;20180;-81
2021/03/08 09:02:14;;;;;;;45.50;31.23;;;6.30;1.00;;;;;;5054472;28;20215;-76
2021/03/08 09:04:40;;;;;;;42.93;29.90;;;6.30;1.00;;;;;;5071973;28;20603;-78
2021/03/08 09:07:20;;;;;;;46.00;30.20;;;6.20;1.00;;;;;;5054387;28;20661;-78
2021/03/08 09:09:46;;;;;;;45.47;28.70;;;6.20;1.00;;;;;;5072117;28;20267;-78
2021/03/08 09:12:27;;;;;;;37.10;25.77;;;6.40;1.00;;;;;;5072594;28;20192;-78
2021/03/08 09:15:07;;;;;;;44.83;29.50;;;6.40;1.00;;;;;;5072649;28;20217;-84
2021/03/08 09:17:41;;;;;;;42.27;27.73;;;6.40;1.00;;;;;;5072715;28;20186;-79
2021/03/08 09:20:06;;;;;;;45.27;28.73;;;6.60;1.00;;;;;;5072018;28;20171;-81
2021/03/08 09:22:36;;;;;;;44.00;28.70;;;6.60;1.00;;;;;;5072308;28;20180;-83
2021/03/08 09:25:12;;;;;;;44.77;29.87;;;6.60;1.00;;;;;;5072880;28;20161;-78
2021/03/08 09:27:57;;;;;;;48.80;31.10;;;6.60;1.00;;;;;;5054838;28;20631;-78
2021/03/08 09:30:24;;;;;;;40.63;27.00;;;6.70;1.00;;;;;;5073779;28;20273;-78
2021/03/08 09:32:51;;;;;;;48.33;32.27;;;6.90;1.00;;;;;;5054910;28;20190;-86
2021/03/08 09:35:19;;;;;;;39.10;26.77;;;7.00;1.00;;;;;;5072572;28;20168;-79
2021/03/08 09:37:47;;;;;;;36.67;24.33;;;7.00;1.00;;;;;;5054495;28;20172;-87
2021/03/08 09:40:22;;;;;;;39.27;26.70;;;7.00;99.90;;;;;;5071426;28;20176;-79
2021/03/08 09:42:49;;;;;;;39.23;23.90;;;7.20;99.90;;;;;;5071847;28;20205;-79
2021/03/08 09:45:21;;;;;;;38.30;27.03;;;7.30;99.90;;;;;;5071599;28;20203;-78
2021/03/08 09:47:47;;;;;;;41.13;27.27;;;7.20;99.90;;;;;;5053871;28;20192;-80
2021/03/08 09:50:19;;;;;;;39.33;25.23;;;7.10;99.90;;;;;;5073832;28;20521;-77
2021/03/08 09:52:46;;;;;;;40.10;26.93;;;7.20;99.90;;;;;;5076062;28;20625;-79
2021/03/08 09:55:17;;;;;;;37.63;26.33;;;7.20;99.90;;;;;;5075334;28;20541;-79
2021/03/08 09:57:44;;;;;;;41.13;25.47;;;7.10;99.90;;;;;;5075422;28;20187;-80
2021/03/08 10:00:20;;;;;;;39.20;24.43;;;7.20;99.90;;;;;;5075963;28;20164;-83
2021/03/08 10:02:45;;;;;;;35.80;22.57;;;7.40;1.00;;;;;;5075458;28;20198;-80
2021/03/08 10:05:13;;;;;;;32.47;23.07;;;7.50;1.00;;;;;;5075700;28;20526;-81
2021/03/08 10:07:51;;;;;;;33.77;22.10;;;7.70;99.90;;;;;;5075548;28;20168;-78
2021/03/08 10:10:18;;;;;;;31.13;21.50;;;8.00;1.00;;;;;;5075142;28;20179;-77
2021/03/08 10:12:43;;;;;;;33.30;22.13;;;8.40;1.00;;;;;;5058021;28;20164;-80
2021/03/08 10:15:11;;;;;;;27.87;18.30;;;8.50;99.90;;;;;;5076171;28;20183;-83
2021/03/08 10:17:57;;;;;;;25.87;18.90;;;8.50;1.00;;;;;;5076010;28;20167;-79
2021/03/08 10:20:24;;;;;;;26.53;19.03;;;8.60;99.90;;;;;;5075484;28;20505;-81
2021/03/08 10:22:49;;;;;;;25.73;18.90;;;8.30;99.90;;;;;;5076280;28;20176;-80
2021/03/08 10:25:24;;;;;;;30.10;20.17;;;8.20;1.00;;;;;;5075556;28;20636;-82
2021/03/08 10:27:57;;;;;;;30.90;19.97;;;8.30;1.00;;;;;;5057232;28;20273;-79
2021/03/08 10:30:26;;;;;;;29.37;20.13;;;8.40;99.90;;;;;;5075382;28;20176;-78
2021/03/08 10:32:55;;;;;;;25.03;17.30;;;8.60;99.90;;;;;;5075659;28;20616;-77
2021/03/08 10:35:22;;;;;;;24.13;17.47;;;8.80;1.00;;;;;;5075134;28;20176;-80
2021/03/08 10:37:48;;;;;;;24.77;16.60;;;8.70;1.00;;;;;;5074987;28;20168;-78
2021/03/08 10:40:18;;;;;;;23.60;15.47;;;8.50;1.00;;;;;;5074697;28;20628;-78
2021/03/08 10:42:44;;;;;;;21.73;14.70;;;8.30;1.00;;;;;;5074593;28;20296;-85
2021/03/08 10:45:11;;;;;;;22.53;15.73;;;8.30;1.00;;;;;;5074474;28;20168;-80
2021/03/08 10:47:37;;;;;;;22.43;15.63;;;8.30;1.00;;;;;;5075259;28;20253;-80
2021/03/08 10:50:04;;;;;;;26.40;17.40;;;8.30;1.00;;;;;;5074327;28;20235;-81
2021/03/08 10:52:30;;;;;;;27.43;18.27;;;8.60;1.00;;;;;;5056171;28;20180;-78
2021/03/08 10:54:56;;;;;;;27.83;20.77;;;9.00;99.90;;;;;;5056530;28;20538;-77
2021/03/08 10:57:23;;;;;;;31.13;21.10;;;9.20;99.90;;;;;;5074849;28;20168;-82
2021/03/08 10:59:54;;;;;;;30.97;21.73;;;9.20;99.90;;;;;;5074502;28;20175;-83
2021/03/08 11:02:21;;;;;;;28.17;21.17;;;9.20;1.00;;;;;;5074534;28;20204;-80
2021/03/08 11:04:49;;;;;;;29.57;20.73;;;9.40;99.90;;;;;;5075008;28;20164;-78
2021/03/08 11:07:15;;;;;;;28.63;20.57;;;9.50;99.90;;;;;;5074960;28;20182;-81
2021/03/08 11:09:45;;;;;;;29.03;20.17;;;9.40;99.90;;;;;;5074640;28;20290;-79
2021/03/08 11:12:19;;;;;;;31.60;20.60;;;9.30;1.00;;;;;;5074772;28;20168;-84
2021/03/08 11:14:55;;;;;;;29.23;20.60;;;9.10;1.00;;;;;;5074498;28;20208;-79
2021/03/08 11:17:43;;;;;;;26.30;16.97;;;9.20;1.00;;;;;;5073958;28;20164;-83
2021/03/08 11:20:14;;;;;;;26.33;17.47;;;9.00;83.90;;;;;;5074069;28;20165;-80
2021/03/08 11:23:08;;;;;;;28.03;19.50;;;8.80;99.90;;;;;;5073846;28;20195;-80
2021/03/08 11:25:38;;;;;;;28.30;19.67;;;8.60;1.00;;;;;;5073890;28;20160;-79
2021/03/08 11:28:15;;;;;;;29.90;18.53;;;8.60;99.90;;;;;;5074379;28;20261;-79
2021/03/08 11:30:51;;;;;;;26.33;17.23;;;8.80;99.90;;;;;;5073902;28;20588;-82
2021/03/08 11:33:18;;;;;;;24.63;17.07;;;8.80;1.00;;;;;;5056046;28;20170;-85
2021/03/08 11:35:50;;;;;;;24.37;16.23;;;9.00;99.90;;;;;;5074095;28;20255;-77
2021/03/08 11:38:25;;;;;;;25.97;16.63;;;9.10;1.00;;;;;;5055767;28;20172;-78
2021/03/08 11:40:51;;;;;;;94.80;22.90;;;9.10;99.90;;;;;;5059045;28;20560;-80
2021/03/08 11:43:18;;;;;;;21.77;12.77;;;9.10;99.90;;;;;;5073744;28;20226;-80
2021/03/08 11:45:44;;;;;;;15.47;11.77;;;9.00;1.00;;;;;;5073808;28;20511;-79
2021/03/08 11:48:10;;;;;;;22.13;13.93;;;8.90;1.00;;;;;;5073085;28;20671;-79
2021/03/08 11:50:37;;;;;;;28.70;17.57;;;9.10;99.90;;;;;;5073007;28;20214;-83
2021/03/08 11:53:04;;;;;;;24.20;16.43;;;9.40;1.00;;;;;;5074294;28;20203;-82
2021/03/08 11:55:30;;;;;;;24.33;17.17;;;9.60;99.90;;;;;;5074203;28;20168;-78
2021/03/08 11:57:56;;;;;;;25.53;17.97;;;9.70;1.00;;;;;;5073680;28;20164;-80
2021/03/08 12:00:24;;;;;;;24.97;18.03;;;9.80;1.00;;;;;;5056120;28;20175;-78
2021/03/08 12:02:51;;;;;;;23.20;17.63;;;9.80;1.00;;;;;;5073009;28;20232;-83
2021/03/08 12:05:17;;;;;;;24.57;17.87;;;9.60;1.00;;;;;;5073133;28;20171;-82
2021/03/08 12:07:43;;;;;;;26.60;18.23;;;9.80;70.20;;;;;;5073453;28;20174;-77
2021/03/08 12:10:10;;;;;;;25.23;17.67;;;10.10;6.10;;;;;;5055171;28;20263;-81
2021/03/08 12:12:36;;;;;;;25.40;16.57;;;10.30;1.00;;;;;;5072642;28;20168;-79
2021/03/08 12:15:04;;;;;;;24.80;16.70;;;10.20;99.90;;;;;;5072903;28;20632;-81
2021/03/08 12:17:30;;;;;;;22.63;16.30;;;10.00;99.90;;;;;;5073240;28;20210;-78
2021/03/08 12:19:55;;;;;;;24.57;15.43;;;9.70;1.00;;;;;;5055516;28;20176;-88
2021/03/08 12:22:21;;;;;;;20.33;14.53;;;9.60;99.90;;;;;;5072705;28;20652;-86
2021/03/08 12:24:47;;;;;;;21.23;15.90;;;9.50;1.00;;;;;;5073235;28;20169;-81
2021/03/08 12:27:12;;;;;;;22.37;15.87;;;9.40;99.90;;;;;;5073274;28;20632;-81
2021/03/08 12:29:38;;;;;;;21.17;15.67;;;9.40;1.00;;;;;;5055155;28;20256;-78
2021/03/08 12:32:08;;;;;;;22.30;14.20;;;9.40;2.10;;;;;;5072634;28;20530;-78
2021/03/08 12:34:34;;;;;;;21.40;14.67;;;9.40;99.90;;;;;;5072606;28;20222;-78
2021/03/08 12:37:00;;;;;;;23.57;16.63;;;9.40;99.90;;;;;;5072651;28;20247;-78
2021/03/08 12:39:25;;;;;;;20.70;16.00;;;9.20;17.30;;;;;;5072974;28;20200;-84
2021/03/08 12:41:51;;;;;;;23.83;15.00;;;9.10;1.00;;;;;;5073110;28;20532;-79
2021/03/08 12:44:17;;;;;;;22.27;16.13;;;9.20;1.00;;;;;;5072919;28;20616;-83
2021/03/08 12:46:42;;;;;;;22.90;14.40;;;9.40;1.00;;;;;;5073074;28;20168;-81
2021/03/08 12:49:08;;;;;;;22.33;15.60;;;9.70;1.00;;;;;;5073189;28;20284;-83
2021/03/08 12:51:34;;;;;;;22.30;15.47;;;9.70;1.00;;;;;;5073262;28;20208;-79
2021/03/08 12:53:59;;;;;;;22.50;16.43;;;9.60;1.00;;;;;;5055394;28;20200;-80
2021/03/08 12:56:25;;;;;;;20.20;14.90;;;10.00;99.90;;;;;;5054843;28;20191;-83
2021/03/08 12:58:50;;;;;;;21.90;14.57;;;9.80;1.00;;;;;;5073131;28;20176;-79